Tropical Cyclones
[Index]
Main Index Home Page Stock Weather Photos Extreme Storms Discussion Storm News and Storm Chasing Reports Tropical Cyclones / Hurricanes / Typhoons Weather Data and Links Wild Fires / Bushfires Weather Observation Techniques Weather Picture Catalogue Tornado Pictures and Reports Stock Video Footage and DVDs for sale
Season 1999-2000 Tropical Cyclone KIM Track Map
Season 1999-2000 Summaries: [BoM-AU] [JTWC-AU] [JTWC-SIO] [JTWC-SPAC] [JTWC-SH]
<<- Previous TC | JTWC 1999-2000 Season | Next TC ->>

click for intensity scale information  Lat/long Grid: Show Hide

 Date Labels: Show Hide

Joint Typhoon Warning Centre Cyclone Data

Name: KIM

23 Feb 2000 12:00 UTC to 01 Mar 2000 00:00 UTC

    date/time    lat    long     hPa   cat  kts
2000-02-23 12   23.2   132.8W                 20          
2000-02-23 18   23.2   133.6W                 25          
2000-02-24 00   23.2   134.5W                 30          
2000-02-24 06   23.2   135.1W                 30          
2000-02-24 12   23.2   135.4W                 35          
2000-02-24 18   23.2   135.7W           1     45          
2000-02-25 00   23.2   136.0W           1     45          
2000-02-25 06   23.3   136.4W           2     55          
2000-02-25 12   23.5   137.0W           2     60          
2000-02-25 18   24.2   137.6W           2     65          
2000-02-26 00   24.5   138.5W           4    100          
2000-02-26 06   24.7   139.2W           4    100          
2000-02-26 12   25.4   139.9W           3     95          
2000-02-26 18   26.5   141.0W           3     75          
2000-02-27 00   27.4   142.0W           3     75          
2000-02-27 06   28.0   142.8W           3     75          
2000-02-27 12   28.7   143.7W           2     70          
2000-02-27 18   29.3   145.2W           2     65          
2000-02-28 00   30.1   146.4W           1     50          
2000-02-28 06   31.0   147.7W                 35          
2000-02-28 12   31.7   148.6W                 35          
2000-02-28 18   32.5   149.3W                 35          
2000-02-29 00   33.2   149.8W                 35          
2000-02-29 06   34.3   150.5W                 30          
2000-02-29 12   35.2   151.5W                 30          
2000-02-29 18   35.7   152.3W                 30          
2000-03-01 00   36.4   152.9W                 25          
Winds are 1-min average.

Tropical cyclone tracks developed by Michael Bath using data from the Joint Typhoon Warning Centre Best Tracks and Google Maps.


[Australian Severe Weather index] [Copyright Notice] [Email Contacts] [Search This Site] [Privacy Policy]
Document: tropical_cyclone_kim.htm Updated: 18 September 2016